Latest Coastal Weather Observations for Point Fawcett

IDD60701

Issued at 12:05 am CST Saturday 29 November 2014 (issued every 10 minutes, with the page automatically refreshed every 10 minutes)

About coastal observations | Map of coastal stations | Coastal observations for NT | Marine services | Other Formats
Station Details ID: 200731 Name: POINT FAWCETT Lat: -11.76 Lon: 130.03 Height: 6.5 m
Data from the previous 72 hours. | See also: Recent months at Point Fawcett
Date/Time
CST
Temp

°C
Wind Pressure Rain
since 9am
mm
Weather Cloud Vis
km
Sea
Height
m
Swell
Dir
 
Speed
knots
Gust
knots
hPa Trend Height
m
Period
s
Dir
29/12:00am 24.4 SE 3 4 1008.6 - - - - - - - - -
 
Date/Time
CST
Temp

°C
Wind Pressure Rain
since 9am
mm
Weather Cloud Vis
km
Sea
Height
m
Swell
Dir
 
Speed
knots
Gust
knots
hPa Trend Height
m
Period
s
Dir
28/11:30pm 24.5 ESE 4 4 1009.1 - - - - - - - - -
28/11:00pm 24.6 ESE 3 4 1009.2 - - - - - - - - -
28/10:30pm 24.7 ESE 3 4 1009.1 - - - - - - - - -
28/10:00pm 24.8 ESE 4 4 1009.0 - - - - - - - - -
28/09:30pm 25.0 E 3 4 1008.6 - - - - - - - - -
28/09:00pm 25.2 ESE 3 3 1008.3 - - - - - - - - -
28/08:30pm 25.5 E 3 3 1008.0 - - - - - - - - -
28/08:00pm 25.5 ESE 4 4 1007.5 - - - - - - - - -
28/07:30pm 25.5 ESE 4 6 1007.2 - - - - - - - - -
28/07:00pm 25.9 SE 3 4 1006.8 - - - - - - - - -
28/06:30pm 25.9 SE 4 5 1006.7 - - - - - - - - -
28/06:00pm 25.9 SE 3 5 1006.2 - - - - - - - - -
28/05:30pm 25.4 SSE 6 9 1006.5 - - - - - - - - -
28/05:00pm 25.3 SSE 5 8 1006.9 - - - - - - - - -
28/04:30pm 27.2 SSE 7 13 1006.4 - - - - - - - - -
28/04:00pm 27.5 S 5 9 1006.2 - - - - - - - - -
28/03:30pm 28.0 S 5 7 1006.3 - - - - - - - - -
28/03:00pm 28.0 S 5 7 1006.8 - - - - - - - - -
28/02:30pm 29.2 SSW 7 11 1007.1 - - - - - - - - -
28/02:00pm 29.7 S 5 7 1007.3 - - - - - - - - -
28/01:30pm 29.4 SSE 5 8 1007.7 - - - - - - - - -
28/01:00pm 27.4 SE 3 5 1008.4 - - - - - - - - -
28/12:30pm 26.6 SE 5 6 1008.9 - - - - - - - - -
28/12:00pm 25.8 ENE 5 7 1009.2 - - - - - - - - -
28/11:30am 24.9 SE 8 13 1009.8 - - - - - - - - -
28/11:00am 28.8 S 5 9 1010.4 - - - - - - - - -
28/10:30am 30.3 WNW 5 7 1010.2 - - - - - - - - -
28/10:00am 30.1 NW 7 9 1010.3 - - - - - - - - -
28/09:30am 30.5 NW 5 8 1010.3 - - - - - - - - -
28/09:00am 30.1 NE 3 5 1009.9 - - - - - - - - -
28/08:30am 28.3 NE 3 5 1009.8 - - - - - - - - -
28/08:00am 27.3 ESE 2 4 1009.8 - - - - - - - - -
28/07:30am 26.6 NE 3 5 1009.7 - - - - - - - - -
28/07:00am 25.8 ESE 4 5 1009.3 - - - - - - - - -
28/06:30am 25.3 ESE 4 6 1009.0 - - - - - - - - -
28/06:00am 25.1 SE 4 5 1008.7 - - - - - - - - -
28/05:30am 25.2 ESE 4 4 1007.9 - - - - - - - - -
28/05:00am 25.5 SE 4 5 1008.1 - - - - - - - - -
28/04:30am 25.9 ESE 3 3 1007.7 - - - - - - - - -
28/04:00am 26.2 CALM 0 0 1007.7 - - - - - - - - -
28/03:30am 26.8 W 4 5 1007.5 - - - - - - - - -
28/03:00am 26.4 W 3 7 1007.5 - - - - - - - - -
28/02:30am 26.1 E 4 7 1007.8 - - - - - - - - -
28/02:00am 25.9 ESE 4 5 1007.9 - - - - - - - - -
28/01:30am 26.0 ESE 4 6 1008.2 - - - - - - - - -
28/01:00am 25.9 ESE 4 5 1008.4 - - - - - - - - -
28/12:30am 25.9 E 4 5 1008.6 - - - - - - - - -
28/12:00am 26.1 E 4 5 1008.7 - - - - - - - - -
 
Date/Time
CST
Temp

°C
Wind Pressure Rain
since 9am
mm
Weather Cloud Vis
km
Sea
Height
m
Swell
Dir
 
Speed
knots
Gust
knots
hPa Trend Height
m
Period
s
Dir
27/11:30pm 26.3 E 4 5 1008.8 - - - - - - - - -
27/11:00pm 26.6 ENE 3 5 1009.1 - - - - - - - - -
27/10:30pm 27.2 NE 4 6 1009.1 - - - - - - - - -
27/10:00pm 27.2 NE 4 7 1009.0 - - - - - - - - -
27/09:30pm 28.3 N 4 7 1008.7 - - - - - - - - -
27/09:00pm 28.3 N 4 7 1008.6 - - - - - - - - -
27/08:30pm 28.4 NNW 7 10 1008.3 - - - - - - - - -
27/08:00pm 28.4 N 6 9 1008.0 - - - - - - - - -
27/07:30pm 27.9 NNW 8 11 1007.7 - - - - - - - - -
27/07:00pm 27.6 NNW 7 11 1007.4 - - - - - - - - -
27/06:30pm 27.5 NNW 10 14 1007.4 - - - - - - - - -
27/06:00pm 27.8 NW 7 9 1007.0 - - - - - - - - -
27/05:30pm 28.8 NE 9 15 1006.9 - - - - - - - - -
27/05:00pm 31.1 W 5 7 1006.6 - - - - - - - - -
27/04:30pm 31.3 W 5 7 1006.2 - - - - - - - - -
27/04:00pm 31.4 WSW 5 7 1006.3 - - - - - - - - -
27/03:30pm 31.1 W 7 9 1006.4 - - - - - - - - -
27/03:00pm 30.6 W 5 8 1006.7 - - - - - - - - -
27/02:30pm 27.9 SSW 1 3 1007.2 - - - - - - - - -
27/02:00pm 28.4 ESE 3 5 1007.5 - - - - - - - - -
27/01:30pm 30.5 WSW 7 11 1007.4 - - - - - - - - -
27/01:00pm 32.8 WSW 8 11 1007.6 - - - - - - - - -
27/12:30pm 31.3 SW 7 9 1008.3 - - - - - - - - -
27/12:00pm 32.3 SW 7 9 1008.6 - - - - - - - - -
27/11:30am 31.3 SW 6 10 1009.0 - - - - - - - - -
27/11:00am 31.4 WNW 5 6 1009.4 - - - - - - - - -
27/10:30am 31.8 N 5 7 1009.6 - - - - - - - - -
27/10:00am 31.9 N 5 7 1009.9 - - - - - - - - -
27/09:30am 31.4 NNE 5 7 1010.0 - - - - - - - - -
27/09:00am 30.9 NE 5 8 1009.6 - - - - - - - - -
27/08:30am 30.1 E 6 8 1009.5 - - - - - - - - -
27/08:00am 29.2 ENE 6 7 1009.2 - - - - - - - - -
27/07:30am 27.5 E 5 7 1008.8 - - - - - - - - -
27/07:00am 26.2 E 6 11 1008.3 - - - - - - - - -
27/06:30am 25.8 E 5 7 1008.0 - - - - - - - - -
27/06:00am 26.0 E 5 7 1007.7 - - - - - - - - -
27/05:30am 26.1 E 4 7 1007.6 - - - - - - - - -
27/05:00am 25.9 E 6 8 1007.2 - - - - - - - - -
27/04:30am 25.8 E 5 7 1006.8 - - - - - - - - -
27/04:00am 25.8 E 4 5 1006.8 - - - - - - - - -
27/03:30am 25.9 ESE 4 4 1007.0 - - - - - - - - -
27/03:00am 25.9 E 4 5 1006.9 - - - - - - - - -
27/02:30am 25.9 E 4 5 1007.1 - - - - - - - - -
27/02:00am 26.1 E 4 5 1007.4 - - - - - - - - -
27/01:30am 25.9 E 4 5 1007.8 - - - - - - - - -
27/01:00am 26.1 E 5 6 1008.0 - - - - - - - - -
27/12:30am 25.7 ENE 5 6 1008.3 - - - - - - - - -
27/12:00am 25.7 E 4 5 1008.3 - - - - - - - - -
 
Date/Time
CST
Temp

°C
Wind Pressure Rain
since 9am
mm
Weather Cloud Vis
km
Sea
Height
m
Swell
Dir
 
Speed
knots
Gust
knots
hPa Trend Height
m
Period
s
Dir
26/11:30pm 26.1 NNE 4 6 1008.3 - - - - - - - - -
26/11:00pm 26.6 ENE 3 4 1008.3 - - - - - - - - -
26/10:30pm 27.9 NNE 6 9 1008.2 - - - - - - - - -
26/10:00pm 27.2 N 7 10 1008.2 - - - - - - - - -
26/09:30pm 25.9 NE 4 6 1007.8 - - - - - - - - -
26/09:00pm 26.0 E 2 4 1007.5 - - - - - - - - -
26/08:30pm 25.7 ENE 4 6 1007.1 - - - - - - - - -
26/08:00pm 25.9 NE 3 4 1006.8 - - - - - - - - -
26/07:30pm 26.4 NE 4 6 1006.5 - - - - - - - - -
26/07:00pm 26.9 NE 3 4 1006.3 - - - - - - - - -
26/06:30pm 27.4 NE 6 9 1005.9 - - - - - - - - -
26/06:00pm 27.2 NNE 7 11 1005.7 - - - - - - - - -
26/05:30pm 25.9 E 6 9 1005.9 - - - - - - - - -
26/05:00pm 25.5 NE 7 11 1006.0 - - - - - - - - -
26/04:30pm 25.6 E 6 12 1006.3 - - - - - - - - -
26/04:00pm 27.1 ENE 11 23 1006.4 - - - - - - - - -
26/03:30pm 30.7 W 7 8 1005.9 - - - - - - - - -
26/03:00pm 28.5 WNW 5 7 1005.6 - - - - - - - - -
26/02:30pm 30.3 W 4 6 1006.3 - - - - - - - - -
26/02:00pm 32.4 W 6 8 1006.0 - - - - - - - - -
26/01:30pm 33.1 WSW 6 9 1006.6 - - - - - - - - -
26/01:00pm 30.6 SW 6 9 1007.0 - - - - - - - - -
26/12:30pm 31.4 SW 6 8 1007.4 - - - - - - - - -
26/12:00pm 31.6 W 6 8 1007.7 - - - - - - - - -
26/11:30am 32.7 NNW 5 8 1008.2 - - - - - - - - -
26/11:00am 33.3 N 6 8 1008.1 - - - - - - - - -
26/10:30am 33.3 NNE 6 8 1008.4 - - - - - - - - -
26/10:00am 31.8 NNE 5 7 1008.5 - - - - - - - - -
26/09:30am 31.4 NNE 5 7 1008.5 - - - - - - - - -
26/09:00am 31.0 NE 5 7 1008.4 - - - - - - - - -
26/08:30am 29.1 ENE 4 6 1008.6 - - - - - - - - -
26/08:00am 27.8 CALM 0 0 1008.3 - - - - - - - - -
26/07:30am 27.0 E 4 5 1007.8 - - - - - - - - -
26/07:00am 26.2 ENE 5 6 1007.3 - - - - - - - - -
26/06:30am 25.0 ESE 4 5 1007.2 - - - - - - - - -
26/06:00am 25.1 ESE 1 3 1006.8 - - - - - - - - -
26/05:30am 25.7 E 4 5 1006.5 - - - - - - - - -
26/05:00am 25.8 E 4 5 1006.2 - - - - - - - - -
26/04:30am 25.7 ENE 5 6 1006.1 - - - - - - - - -
26/04:00am 25.2 E 4 5 1006.3 - - - - - - - - -
26/03:30am 24.7 ESE 4 5 1006.3 - - - - - - - - -
26/03:00am 25.0 ESE 3 4 1006.1 - - - - - - - - -
26/02:30am 25.1 ESE 4 5 1006.3 - - - - - - - - -
26/02:00am 25.2 E 4 5 1006.1 - - - - - - - - -
26/01:30am 25.0 E 4 6 1006.7 - - - - - - - - -
26/01:00am 24.9 ESE 4 5 1007.0 - - - - - - - - -
26/12:30am 25.0 E 4 5 1007.3 - - - - - - - - -

Other Formats:

Comma delimited format used in spreadsheet applications
http://www.bom.gov.au/fwo/IDD60701/IDD60701.94122.axf

JavaScript Object Notation format (JSON) in row-major order
http://www.bom.gov.au/fwo/IDD60701/IDD60701.94122.json